sensor_id;sensor_type;location;lat;lon;timestamp;P1;durP1;ratioP1;P2;durP2;ratioP2
3959;SDS011;1994;48.640;8.894;2023-04-25T00:00:26;2.50;;;2.30;;
3959;SDS011;1994;48.640;8.894;2023-04-25T00:02:52;2.30;;;2.10;;
3959;SDS011;1994;48.640;8.894;2023-04-25T00:05:17;2.93;;;2.50;;
3959;SDS011;1994;48.640;8.894;2023-04-25T00:07:44;2.80;;;2.60;;
3959;SDS011;1994;48.640;8.894;2023-04-25T00:10:11;2.90;;;2.70;;
3959;SDS011;1994;48.640;8.894;2023-04-25T00:12:37;2.53;;;2.33;;
3959;SDS011;1994;48.640;8.894;2023-04-25T00:15:04;3.23;;;2.60;;
3959;SDS011;1994;48.640;8.894;2023-04-25T00:17:30;2.30;;;2.10;;
3959;SDS011;1994;48.640;8.894;2023-04-25T00:19:56;2.43;;;2.23;;
3959;SDS011;1994;48.640;8.894;2023-04-25T00:22:25;2.23;;;2.03;;
3959;SDS011;1994;48.640;8.894;2023-04-25T00:24:51;2.33;;;2.20;;
3959;SDS011;1994;48.640;8.894;2023-04-25T00:27:18;2.30;;;2.20;;
3959;SDS011;1994;48.640;8.894;2023-04-25T00:29:44;2.50;;;2.30;;
3959;SDS011;1994;48.640;8.894;2023-04-25T00:32:09;1.70;;;1.60;;
3959;SDS011;1994;48.640;8.894;2023-04-25T00:34:35;2.10;;;2.00;;
3959;SDS011;1994;48.640;8.894;2023-04-25T00:37:01;1.73;;;1.63;;
3959;SDS011;1994;48.640;8.894;2023-04-25T00:39:30;2.30;;;2.20;;
3959;SDS011;1994;48.640;8.894;2023-04-25T00:41:56;3.33;;;1.83;;
3959;SDS011;1994;48.640;8.894;2023-04-25T00:44:23;2.30;;;1.53;;
3959;SDS011;1994;48.640;8.894;2023-04-25T00:46:51;2.70;;;2.30;;
3959;SDS011;1994;48.640;8.894;2023-04-25T00:49:18;2.23;;;2.00;;
3959;SDS011;1994;48.640;8.894;2023-04-25T00:51:47;2.53;;;2.07;;
3959;SDS011;1994;48.640;8.894;2023-04-25T00:54:16;2.00;;;1.90;;
3959;SDS011;1994;48.640;8.894;2023-04-25T00:56:42;2.10;;;2.00;;
3959;SDS011;1994;48.640;8.894;2023-04-25T00:59:10;2.10;;;2.00;;
3959;SDS011;1994;48.640;8.894;2023-04-25T01:01:36;2.10;;;2.00;;
3959;SDS011;1994;48.640;8.894;2023-04-25T01:04:04;1.93;;;1.83;;
3959;SDS011;1994;48.640;8.894;2023-04-25T01:06:30;2.00;;;1.90;;
3959;SDS011;1994;48.640;8.894;2023-04-25T01:08:57;2.23;;;2.03;;
3959;SDS011;1994;48.640;8.894;2023-04-25T01:11:23;3.63;;;2.17;;
3959;SDS011;1994;48.640;8.894;2023-04-25T01:13:49;2.20;;;1.80;;
3959;SDS011;1994;48.640;8.894;2023-04-25T01:16:16;1.63;;;1.53;;
3959;SDS011;1994;48.640;8.894;2023-04-25T01:18:42;2.13;;;2.03;;
3959;SDS011;1994;48.640;8.894;2023-04-25T01:21:09;2.50;;;2.03;;
3959;SDS011;1994;48.640;8.894;2023-04-25T01:23:36;2.13;;;1.93;;
3959;SDS011;1994;48.640;8.894;2023-04-25T01:26:03;2.70;;;1.90;;
3959;SDS011;1994;48.640;8.894;2023-04-25T01:28:30;3.47;;;1.77;;
3959;SDS011;1994;48.640;8.894;2023-04-25T01:30:57;3.17;;;2.00;;
3959;SDS011;1994;48.640;8.894;2023-04-25T01:33:23;2.00;;;1.90;;
3959;SDS011;1994;48.640;8.894;2023-04-25T01:35:49;2.20;;;1.90;;
3959;SDS011;1994;48.640;8.894;2023-04-25T01:38:18;1.97;;;1.87;;
3959;SDS011;1994;48.640;8.894;2023-04-25T01:40:44;1.80;;;1.70;;
3959;SDS011;1994;48.640;8.894;2023-04-25T01:43:12;2.10;;;1.93;;
3959;SDS011;1994;48.640;8.894;2023-04-25T01:45:39;2.47;;;2.37;;
3959;SDS011;1994;48.640;8.894;2023-04-25T01:48:08;1.90;;;1.80;;
3959;SDS011;1994;48.640;8.894;2023-04-25T01:50:38;1.50;;;1.40;;
3959;SDS011;1994;48.640;8.894;2023-04-25T01:53:05;1.90;;;1.80;;
3959;SDS011;1994;48.640;8.894;2023-04-25T01:55:33;2.10;;;2.00;;
3959;SDS011;1994;48.640;8.894;2023-04-25T01:57:58;2.03;;;1.83;;
3959;SDS011;1994;48.640;8.894;2023-04-25T02:00:27;1.80;;;1.63;;
3959;SDS011;1994;48.640;8.894;2023-04-25T02:02:52;1.73;;;1.63;;
3959;SDS011;1994;48.640;8.894;2023-04-25T02:05:18;1.70;;;1.60;;
3959;SDS011;1994;48.640;8.894;2023-04-25T02:07:45;1.57;;;1.47;;
3959;SDS011;1994;48.640;8.894;2023-04-25T02:10:12;2.53;;;1.70;;
3959;SDS011;1994;48.640;8.894;2023-04-25T02:12:37;1.53;;;1.43;;
3959;SDS011;1994;48.640;8.894;2023-04-25T02:15:03;1.67;;;1.57;;
3959;SDS011;1994;48.640;8.894;2023-04-25T02:17:30;1.80;;;1.70;;
3959;SDS011;1994;48.640;8.894;2023-04-25T02:19:56;1.63;;;1.53;;
3959;SDS011;1994;48.640;8.894;2023-04-25T02:22:22;2.37;;;1.60;;
3959;SDS011;1994;48.640;8.894;2023-04-25T02:24:48;3.00;;;1.57;;
3959;SDS011;1994;48.640;8.894;2023-04-25T02:27:13;1.67;;;1.57;;
3959;SDS011;1994;48.640;8.894;2023-04-25T02:29:39;1.77;;;1.67;;
3959;SDS011;1994;48.640;8.894;2023-04-25T02:32:05;1.80;;;1.57;;
3959;SDS011;1994;48.640;8.894;2023-04-25T02:34:31;1.97;;;1.83;;
3959;SDS011;1994;48.640;8.894;2023-04-25T02:36:57;2.60;;;1.70;;
3959;SDS011;1994;48.640;8.894;2023-04-25T02:39:23;2.47;;;2.10;;
3959;SDS011;1994;48.640;8.894;2023-04-25T02:41:50;1.30;;;1.30;;
3959;SDS011;1994;48.640;8.894;2023-04-25T02:44:17;2.00;;;1.90;;
3959;SDS011;1994;48.640;8.894;2023-04-25T02:46:43;1.63;;;1.53;;
3959;SDS011;1994;48.640;8.894;2023-04-25T02:49:09;1.67;;;1.57;;
3959;SDS011;1994;48.640;8.894;2023-04-25T02:51:35;1.53;;;1.47;;
3959;SDS011;1994;48.640;8.894;2023-04-25T02:54:01;2.70;;;1.90;;
3959;SDS011;1994;48.640;8.894;2023-04-25T02:56:27;3.07;;;2.00;;
3959;SDS011;1994;48.640;8.894;2023-04-25T02:58:53;4.23;;;2.37;;
3959;SDS011;1994;48.640;8.894;2023-04-25T03:01:19;2.53;;;2.00;;
3959;SDS011;1994;48.640;8.894;2023-04-25T03:03:45;2.53;;;2.33;;
3959;SDS011;1994;48.640;8.894;2023-04-25T03:06:10;2.73;;;2.33;;
3959;SDS011;1994;48.640;8.894;2023-04-25T03:08:36;3.03;;;2.43;;
3959;SDS011;1994;48.640;8.894;2023-04-25T03:11:02;2.50;;;2.40;;
3959;SDS011;1994;48.640;8.894;2023-04-25T03:13:27;2.80;;;2.43;;
3959;SDS011;1994;48.640;8.894;2023-04-25T03:15:54;2.60;;;2.40;;
3959;SDS011;1994;48.640;8.894;2023-04-25T03:18:20;3.13;;;2.40;;
3959;SDS011;1994;48.640;8.894;2023-04-25T03:20:46;3.23;;;2.57;;
3959;SDS011;1994;48.640;8.894;2023-04-25T03:23:12;12.30;;;7.00;;
3959;SDS011;1994;48.640;8.894;2023-04-25T03:25:37;3.63;;;2.67;;
3959;SDS011;1994;48.640;8.894;2023-04-25T03:28:03;2.40;;;2.20;;
3959;SDS011;1994;48.640;8.894;2023-04-25T03:30:29;2.90;;;2.60;;
3959;SDS011;1994;48.640;8.894;2023-04-25T03:32:54;4.17;;;2.90;;
3959;SDS011;1994;48.640;8.894;2023-04-25T03:35:20;2.43;;;2.33;;
3959;SDS011;1994;48.640;8.894;2023-04-25T03:37:47;2.90;;;2.70;;
3959;SDS011;1994;48.640;8.894;2023-04-25T03:40:13;2.67;;;2.47;;
3959;SDS011;1994;48.640;8.894;2023-04-25T03:42:39;2.70;;;2.50;;
3959;SDS011;1994;48.640;8.894;2023-04-25T03:45:04;2.57;;;2.37;;
3959;SDS011;1994;48.640;8.894;2023-04-25T03:47:31;3.33;;;2.60;;
3959;SDS011;1994;48.640;8.894;2023-04-25T03:49:57;2.37;;;2.17;;
3959;SDS011;1994;48.640;8.894;2023-04-25T03:52:22;2.20;;;2.10;;
3959;SDS011;1994;48.640;8.894;2023-04-25T03:54:48;3.53;;;2.83;;
3959;SDS011;1994;48.640;8.894;2023-04-25T03:57:14;4.93;;;3.13;;
3959;SDS011;1994;48.640;8.894;2023-04-25T03:59:40;8.63;;;3.03;;
3959;SDS011;1994;48.640;8.894;2023-04-25T04:02:05;3.40;;;3.10;;
3959;SDS011;1994;48.640;8.894;2023-04-25T04:04:31;4.53;;;2.90;;
3959;SDS011;1994;48.640;8.894;2023-04-25T04:06:57;3.13;;;2.90;;
3959;SDS011;1994;48.640;8.894;2023-04-25T04:09:23;3.03;;;2.73;;
3959;SDS011;1994;48.640;8.894;2023-04-25T04:11:48;2.57;;;2.37;;
3959;SDS011;1994;48.640;8.894;2023-04-25T04:14:14;2.90;;;2.70;;
3959;SDS011;1994;48.640;8.894;2023-04-25T04:16:40;2.70;;;2.50;;
3959;SDS011;1994;48.640;8.894;2023-04-25T04:19:06;3.10;;;2.30;;
3959;SDS011;1994;48.640;8.894;2023-04-25T04:21:32;3.63;;;2.33;;
3959;SDS011;1994;48.640;8.894;2023-04-25T04:23:58;3.17;;;2.53;;
3959;SDS011;1994;48.640;8.894;2023-04-25T04:26:27;3.70;;;3.40;;
3959;SDS011;1994;48.640;8.894;2023-04-25T04:28:53;8.53;;;7.63;;
3959;SDS011;1994;48.640;8.894;2023-04-25T04:31:20;4.30;;;3.80;;
3959;SDS011;1994;48.640;8.894;2023-04-25T04:33:47;2.80;;;2.60;;
3959;SDS011;1994;48.640;8.894;2023-04-25T04:36:12;2.30;;;2.10;;
3959;SDS011;1994;48.640;8.894;2023-04-25T04:38:39;4.03;;;2.43;;
3959;SDS011;1994;48.640;8.894;2023-04-25T04:41:06;2.83;;;2.63;;
3959;SDS011;1994;48.640;8.894;2023-04-25T04:43:31;2.83;;;2.63;;
3959;SDS011;1994;48.640;8.894;2023-04-25T04:45:58;3.03;;;2.83;;
3959;SDS011;1994;48.640;8.894;2023-04-25T04:48:26;2.53;;;2.30;;
3959;SDS011;1994;48.640;8.894;2023-04-25T04:50:51;3.30;;;2.90;;
3959;SDS011;1994;48.640;8.894;2023-04-25T04:53:17;2.50;;;2.30;;
3959;SDS011;1994;48.640;8.894;2023-04-25T04:55:43;3.10;;;2.40;;
3959;SDS011;1994;48.640;8.894;2023-04-25T04:58:09;4.30;;;3.90;;
3959;SDS011;1994;48.640;8.894;2023-04-25T05:00:35;4.30;;;2.67;;
3959;SDS011;1994;48.640;8.894;2023-04-25T05:03:01;3.60;;;3.30;;
3959;SDS011;1994;48.640;8.894;2023-04-25T05:05:26;3.97;;;3.67;;
3959;SDS011;1994;48.640;8.894;2023-04-25T05:07:52;3.20;;;2.90;;
3959;SDS011;1994;48.640;8.894;2023-04-25T05:10:18;3.63;;;2.70;;
3959;SDS011;1994;48.640;8.894;2023-04-25T05:12:45;3.50;;;2.73;;
3959;SDS011;1994;48.640;8.894;2023-04-25T05:15:10;3.50;;;3.20;;
3959;SDS011;1994;48.640;8.894;2023-04-25T05:17:36;5.40;;;4.43;;
3959;SDS011;1994;48.640;8.894;2023-04-25T05:20:04;3.50;;;3.20;;
3959;SDS011;1994;48.640;8.894;2023-04-25T05:22:32;5.83;;;5.30;;
3959;SDS011;1994;48.640;8.894;2023-04-25T05:24:57;4.83;;;4.33;;
3959;SDS011;1994;48.640;8.894;2023-04-25T05:27:23;4.80;;;4.40;;
3959;SDS011;1994;48.640;8.894;2023-04-25T05:29:49;5.80;;;3.60;;
3959;SDS011;1994;48.640;8.894;2023-04-25T05:32:14;3.70;;;3.40;;
3959;SDS011;1994;48.640;8.894;2023-04-25T05:34:40;8.47;;;4.80;;
3959;SDS011;1994;48.640;8.894;2023-04-25T05:37:06;6.17;;;3.97;;
3959;SDS011;1994;48.640;8.894;2023-04-25T05:39:32;7.40;;;5.33;;
3959;SDS011;1994;48.640;8.894;2023-04-25T05:41:58;12.90;;;9.40;;
3959;SDS011;1994;48.640;8.894;2023-04-25T05:44:24;18.53;;;8.33;;
3959;SDS011;1994;48.640;8.894;2023-04-25T05:46:49;8.20;;;6.93;;
3959;SDS011;1994;48.640;8.894;2023-04-25T05:49:15;4.33;;;3.90;;
3959;SDS011;1994;48.640;8.894;2023-04-25T05:51:41;3.53;;;3.20;;
3959;SDS011;1994;48.640;8.894;2023-04-25T05:54:07;7.63;;;4.73;;
3959;SDS011;1994;48.640;8.894;2023-04-25T05:56:32;3.60;;;3.00;;
3959;SDS011;1994;48.640;8.894;2023-04-25T05:58:58;4.60;;;3.47;;
3959;SDS011;1994;48.640;8.894;2023-04-25T06:01:27;5.47;;;4.50;;
3959;SDS011;1994;48.640;8.894;2023-04-25T06:03:53;4.50;;;3.50;;
3959;SDS011;1994;48.640;8.894;2023-04-25T06:06:18;4.73;;;3.33;;
3959;SDS011;1994;48.640;8.894;2023-04-25T06:08:44;2.90;;;2.70;;
3959;SDS011;1994;48.640;8.894;2023-04-25T06:11:10;4.37;;;2.83;;
3959;SDS011;1994;48.640;8.894;2023-04-25T06:13:36;3.67;;;3.37;;
3959;SDS011;1994;48.640;8.894;2023-04-25T06:16:02;5.20;;;3.20;;
3959;SDS011;1994;48.640;8.894;2023-04-25T06:18:28;7.30;;;3.60;;
3959;SDS011;1994;48.640;8.894;2023-04-25T06:20:54;4.17;;;2.97;;
3959;SDS011;1994;48.640;8.894;2023-04-25T06:23:19;3.20;;;2.90;;
3959;SDS011;1994;48.640;8.894;2023-04-25T06:25:45;3.50;;;3.20;;
3959;SDS011;1994;48.640;8.894;2023-04-25T06:28:11;6.10;;;3.20;;
3959;SDS011;1994;48.640;8.894;2023-04-25T06:30:36;3.90;;;3.10;;
3959;SDS011;1994;48.640;8.894;2023-04-25T06:33:02;4.27;;;3.13;;
3959;SDS011;1994;48.640;8.894;2023-04-25T06:35:28;4.10;;;3.03;;
3959;SDS011;1994;48.640;8.894;2023-04-25T06:37:54;5.03;;;3.30;;
3959;SDS011;1994;48.640;8.894;2023-04-25T06:40:19;4.33;;;3.33;;
3959;SDS011;1994;48.640;8.894;2023-04-25T06:42:45;4.53;;;3.20;;
3959;SDS011;1994;48.640;8.894;2023-04-25T06:45:11;6.20;;;4.03;;
3959;SDS011;1994;48.640;8.894;2023-04-25T06:47:36;4.70;;;3.80;;
3959;SDS011;1994;48.640;8.894;2023-04-25T06:50:02;2.97;;;2.77;;
3959;SDS011;1994;48.640;8.894;2023-04-25T06:52:29;2.60;;;2.40;;
3959;SDS011;1994;48.640;8.894;2023-04-25T06:54:55;4.97;;;2.50;;
3959;SDS011;1994;48.640;8.894;2023-04-25T06:57:21;4.10;;;3.20;;
3959;SDS011;1994;48.640;8.894;2023-04-25T06:59:46;4.70;;;3.40;;
3959;SDS011;1994;48.640;8.894;2023-04-25T07:02:12;3.00;;;2.80;;
3959;SDS011;1994;48.640;8.894;2023-04-25T07:04:38;6.50;;;2.60;;
3959;SDS011;1994;48.640;8.894;2023-04-25T07:07:03;2.67;;;2.47;;
3959;SDS011;1994;48.640;8.894;2023-04-25T07:09:29;3.00;;;2.80;;
3959;SDS011;1994;48.640;8.894;2023-04-25T07:11:58;2.67;;;2.43;;
3959;SDS011;1994;48.640;8.894;2023-04-25T07:14:26;3.10;;;2.10;;
3959;SDS011;1994;48.640;8.894;2023-04-25T07:16:52;5.93;;;3.27;;
3959;SDS011;1994;48.640;8.894;2023-04-25T07:19:20;8.27;;;5.80;;
3959;SDS011;1994;48.640;8.894;2023-04-25T07:21:46;6.10;;;5.30;;
3959;SDS011;1994;48.640;8.894;2023-04-25T07:24:12;3.60;;;3.30;;
3959;SDS011;1994;48.640;8.894;2023-04-25T07:26:37;3.83;;;3.50;;
3959;SDS011;1994;48.640;8.894;2023-04-25T07:29:03;7.13;;;3.90;;
3959;SDS011;1994;48.640;8.894;2023-04-25T07:31:29;6.60;;;3.70;;
3959;SDS011;1994;48.640;8.894;2023-04-25T07:33:55;3.47;;;3.17;;
3959;SDS011;1994;48.640;8.894;2023-04-25T07:36:21;3.20;;;3.00;;
3959;SDS011;1994;48.640;8.894;2023-04-25T07:38:46;4.17;;;3.87;;
3959;SDS011;1994;48.640;8.894;2023-04-25T07:41:12;3.17;;;2.70;;
3959;SDS011;1994;48.640;8.894;2023-04-25T07:43:38;9.10;;;6.17;;
3959;SDS011;1994;48.640;8.894;2023-04-25T07:46:03;7.27;;;6.30;;
3959;SDS011;1994;48.640;8.894;2023-04-25T07:48:30;3.67;;;3.37;;
3959;SDS011;1994;48.640;8.894;2023-04-25T07:50:55;5.67;;;3.43;;
3959;SDS011;1994;48.640;8.894;2023-04-25T07:53:21;3.97;;;3.63;;
3959;SDS011;1994;48.640;8.894;2023-04-25T07:55:47;5.27;;;2.60;;
3959;SDS011;1994;48.640;8.894;2023-04-25T07:58:12;2.67;;;2.47;;
3959;SDS011;1994;48.640;8.894;2023-04-25T08:00:39;3.43;;;2.50;;
3959;SDS011;1994;48.640;8.894;2023-04-25T08:03:06;2.43;;;2.23;;
3959;SDS011;1994;48.640;8.894;2023-04-25T08:05:33;2.60;;;2.40;;
3959;SDS011;1994;48.640;8.894;2023-04-25T08:07:59;3.03;;;2.80;;
3959;SDS011;1994;48.640;8.894;2023-04-25T08:10:25;2.37;;;2.17;;
3959;SDS011;1994;48.640;8.894;2023-04-25T08:12:51;3.33;;;2.37;;
3959;SDS011;1994;48.640;8.894;2023-04-25T08:15:17;3.60;;;2.30;;
3959;SDS011;1994;48.640;8.894;2023-04-25T08:17:43;2.70;;;2.50;;
3959;SDS011;1994;48.640;8.894;2023-04-25T08:20:09;2.47;;;2.27;;
3959;SDS011;1994;48.640;8.894;2023-04-25T08:22:35;3.67;;;2.80;;
3959;SDS011;1994;48.640;8.894;2023-04-25T08:25:01;2.60;;;2.40;;
3959;SDS011;1994;48.640;8.894;2023-04-25T08:27:27;2.20;;;2.10;;
3959;SDS011;1994;48.640;8.894;2023-04-25T08:29:53;3.27;;;2.80;;
3959;SDS011;1994;48.640;8.894;2023-04-25T08:32:19;2.03;;;1.93;;
3959;SDS011;1994;48.640;8.894;2023-04-25T08:34:46;3.40;;;2.47;;
3959;SDS011;1994;48.640;8.894;2023-04-25T08:37:12;2.40;;;2.20;;
3959;SDS011;1994;48.640;8.894;2023-04-25T08:39:38;2.10;;;2.00;;
3959;SDS011;1994;48.640;8.894;2023-04-25T08:42:05;4.90;;;1.97;;
3959;SDS011;1994;48.640;8.894;2023-04-25T08:44:35;2.57;;;2.37;;
3959;SDS011;1994;48.640;8.894;2023-04-25T08:47:02;3.00;;;2.80;;
3959;SDS011;1994;48.640;8.894;2023-04-25T08:49:31;3.17;;;2.97;;
3959;SDS011;1994;48.640;8.894;2023-04-25T08:52:00;2.43;;;2.23;;
3959;SDS011;1994;48.640;8.894;2023-04-25T08:54:30;3.70;;;2.47;;
3959;SDS011;1994;48.640;8.894;2023-04-25T08:56:57;2.77;;;2.57;;
3959;SDS011;1994;48.640;8.894;2023-04-25T08:59:27;2.30;;;2.10;;
3959;SDS011;1994;48.640;8.894;2023-04-25T09:01:53;1.70;;;1.60;;
3959;SDS011;1994;48.640;8.894;2023-04-25T09:04:19;4.33;;;2.80;;
3959;SDS011;1994;48.640;8.894;2023-04-25T09:06:47;6.83;;;3.67;;
3959;SDS011;1994;48.640;8.894;2023-04-25T09:09:13;1.97;;;1.87;;
3959;SDS011;1994;48.640;8.894;2023-04-25T09:11:39;2.30;;;1.70;;
3959;SDS011;1994;48.640;8.894;2023-04-25T09:14:20;3.43;;;1.90;;
3959;SDS011;1994;48.640;8.894;2023-04-25T09:19:26;2.70;;;2.50;;
3959;SDS011;1994;48.640;8.894;2023-04-25T09:21:58;1.87;;;1.77;;
3959;SDS011;1994;48.640;8.894;2023-04-25T09:27:02;2.90;;;2.60;;
3959;SDS011;1994;48.640;8.894;2023-04-25T09:29:30;2.57;;;2.33;;
3959;SDS011;1994;48.640;8.894;2023-04-25T09:32:39;1.27;;;1.17;;
3959;SDS011;1994;48.640;8.894;2023-04-25T09:34:54;1.20;;;1.10;;
3959;SDS011;1994;48.640;8.894;2023-04-25T09:37:22;1.20;;;1.10;;
3959;SDS011;1994;48.640;8.894;2023-04-25T09:39:56;0.97;;;0.97;;
3959;SDS011;1994;48.640;8.894;2023-04-25T09:42:25;2.47;;;1.13;;
3959;SDS011;1994;48.640;8.894;2023-04-25T09:44:54;1.00;;;1.00;;
3959;SDS011;1994;48.640;8.894;2023-04-25T09:47:22;1.13;;;1.03;;
3959;SDS011;1994;48.640;8.894;2023-04-25T09:49:50;1.27;;;1.17;;
3959;SDS011;1994;48.640;8.894;2023-04-25T09:52:19;0.80;;;0.80;;
3959;SDS011;1994;48.640;8.894;2023-04-25T09:54:47;1.00;;;0.90;;
3959;SDS011;1994;48.640;8.894;2023-04-25T09:59:43;1.10;;;1.00;;
3959;SDS011;1994;48.640;8.894;2023-04-25T10:02:15;0.87;;;0.87;;
3959;SDS011;1994;48.640;8.894;2023-04-25T10:04:47;0.80;;;0.80;;
3959;SDS011;1994;48.640;8.894;2023-04-25T10:07:17;1.60;;;1.50;;
3959;SDS011;1994;48.640;8.894;2023-04-25T10:09:45;1.33;;;1.20;;
3959;SDS011;1994;48.640;8.894;2023-04-25T10:12:16;5.53;;;0.80;;
3959;SDS011;1994;48.640;8.894;2023-04-25T10:14:42;2.67;;;2.40;;
3959;SDS011;1994;48.640;8.894;2023-04-25T10:17:09;0.70;;;0.70;;
3959;SDS011;1994;48.640;8.894;2023-04-25T10:19:39;0.60;;;0.60;;
3959;SDS011;1994;48.640;8.894;2023-04-25T10:24:42;0.63;;;0.63;;
3959;SDS011;1994;48.640;8.894;2023-04-25T10:27:09;1.63;;;1.53;;
3959;SDS011;1994;48.640;8.894;2023-04-25T10:29:35;0.80;;;0.80;;
3959;SDS011;1994;48.640;8.894;2023-04-25T10:32:01;0.83;;;0.83;;
3959;SDS011;1994;48.640;8.894;2023-04-25T10:34:37;1.03;;;1.00;;
3959;SDS011;1994;48.640;8.894;2023-04-25T10:37:12;0.70;;;0.70;;
3959;SDS011;1994;48.640;8.894;2023-04-25T10:39:41;0.60;;;0.60;;
3959;SDS011;1994;48.640;8.894;2023-04-25T10:42:07;0.70;;;0.70;;
3959;SDS011;1994;48.640;8.894;2023-04-25T10:44:33;0.60;;;0.60;;
3959;SDS011;1994;48.640;8.894;2023-04-25T10:47:01;1.30;;;0.90;;
3959;SDS011;1994;48.640;8.894;2023-04-25T10:52:11;0.60;;;0.60;;
3959;SDS011;1994;48.640;8.894;2023-04-25T10:54:57;1.90;;;0.90;;
3959;SDS011;1994;48.640;8.894;2023-04-25T10:57:29;0.90;;;0.90;;
3959;SDS011;1994;48.640;8.894;2023-04-25T11:00:18;0.70;;;0.70;;
3959;SDS011;1994;48.640;8.894;2023-04-25T11:02:52;0.60;;;0.60;;
3959;SDS011;1994;48.640;8.894;2023-04-25T11:05:32;0.90;;;0.90;;
3959;SDS011;1994;48.640;8.894;2023-04-25T11:08:01;0.93;;;0.93;;
3959;SDS011;1994;48.640;8.894;2023-04-25T11:10:35;0.87;;;0.87;;
3959;SDS011;1994;48.640;8.894;2023-04-25T11:13:01;0.70;;;0.60;;
3959;SDS011;1994;48.640;8.894;2023-04-25T11:15:27;1.00;;;1.00;;
3959;SDS011;1994;48.640;8.894;2023-04-25T11:17:53;0.80;;;0.80;;
3959;SDS011;1994;48.640;8.894;2023-04-25T11:20:20;3.00;;;1.07;;
3959;SDS011;1994;48.640;8.894;2023-04-25T11:22:47;1.77;;;1.03;;
3959;SDS011;1994;48.640;8.894;2023-04-25T11:25:14;0.70;;;0.70;;
3959;SDS011;1994;48.640;8.894;2023-04-25T11:27:54;0.90;;;0.90;;
3959;SDS011;1994;48.640;8.894;2023-04-25T11:30:22;0.80;;;0.80;;
3959;SDS011;1994;48.640;8.894;2023-04-25T11:32:51;0.70;;;0.70;;
3959;SDS011;1994;48.640;8.894;2023-04-25T11:35:17;0.80;;;0.80;;
3959;SDS011;1994;48.640;8.894;2023-04-25T11:37:45;1.53;;;1.43;;
3959;SDS011;1994;48.640;8.894;2023-04-25T11:40:11;0.77;;;0.77;;
3959;SDS011;1994;48.640;8.894;2023-04-25T11:42:38;2.70;;;2.03;;
3959;SDS011;1994;48.640;8.894;2023-04-25T11:45:10;1.63;;;1.53;;
3959;SDS011;1994;48.640;8.894;2023-04-25T11:47:36;2.30;;;1.70;;
3959;SDS011;1994;48.640;8.894;2023-04-25T11:50:03;1.93;;;1.83;;
3959;SDS011;1994;48.640;8.894;2023-04-25T11:52:42;1.40;;;1.40;;
3959;SDS011;1994;48.640;8.894;2023-04-25T11:57:42;2.43;;;2.23;;
3959;SDS011;1994;48.640;8.894;2023-04-25T12:00:17;4.07;;;2.93;;
3959;SDS011;1994;48.640;8.894;2023-04-25T12:02:48;4.67;;;2.73;;
3959;SDS011;1994;48.640;8.894;2023-04-25T12:05:18;4.77;;;3.57;;
3959;SDS011;1994;48.640;8.894;2023-04-25T12:07:45;3.67;;;3.33;;
3959;SDS011;1994;48.640;8.894;2023-04-25T12:10:12;4.50;;;3.73;;
3959;SDS011;1994;48.640;8.894;2023-04-25T12:12:46;4.73;;;3.17;;
3959;SDS011;1994;48.640;8.894;2023-04-25T12:15:16;2.50;;;2.30;;
3959;SDS011;1994;48.640;8.894;2023-04-25T12:17:49;4.00;;;3.70;;
3959;SDS011;1994;48.640;8.894;2023-04-25T12:20:17;3.13;;;2.80;;
3959;SDS011;1994;48.640;8.894;2023-04-25T12:22:45;4.13;;;3.00;;
3959;SDS011;1994;48.640;8.894;2023-04-25T12:25:17;3.37;;;3.07;;
3959;SDS011;1994;48.640;8.894;2023-04-25T12:28:23;3.03;;;2.73;;
3959;SDS011;1994;48.640;8.894;2023-04-25T12:33:32;4.37;;;3.27;;
3959;SDS011;1994;48.640;8.894;2023-04-25T12:36:00;8.20;;;3.30;;
3959;SDS011;1994;48.640;8.894;2023-04-25T12:38:35;2.70;;;2.50;;
3959;SDS011;1994;48.640;8.894;2023-04-25T12:41:03;2.50;;;2.30;;
3959;SDS011;1994;48.640;8.894;2023-04-25T12:43:29;1.90;;;1.80;;
3959;SDS011;1994;48.640;8.894;2023-04-25T12:45:55;16.70;;;6.37;;
3959;SDS011;1994;48.640;8.894;2023-04-25T12:48:21;46.63;;;14.63;;
3959;SDS011;1994;48.640;8.894;2023-04-25T12:50:48;23.67;;;12.60;;
3959;SDS011;1994;48.640;8.894;2023-04-25T12:53:16;30.83;;;17.30;;
3959;SDS011;1994;48.640;8.894;2023-04-25T12:55:43;5.10;;;3.93;;
3959;SDS011;1994;48.640;8.894;2023-04-25T12:58:16;4.57;;;3.77;;
3959;SDS011;1994;48.640;8.894;2023-04-25T13:00:44;4.70;;;3.10;;
3959;SDS011;1994;48.640;8.894;2023-04-25T13:03:10;4.67;;;3.57;;
3959;SDS011;1994;48.640;8.894;2023-04-25T13:05:37;3.47;;;2.43;;
3959;SDS011;1994;48.640;8.894;2023-04-25T13:08:03;5.97;;;4.87;;
3959;SDS011;1994;48.640;8.894;2023-04-25T13:10:29;3.23;;;3.03;;
3959;SDS011;1994;48.640;8.894;2023-04-25T13:12:55;3.63;;;3.17;;
3959;SDS011;1994;48.640;8.894;2023-04-25T13:15:21;3.20;;;2.90;;
3959;SDS011;1994;48.640;8.894;2023-04-25T13:17:48;2.70;;;2.50;;
3959;SDS011;1994;48.640;8.894;2023-04-25T13:20:13;2.10;;;1.90;;
3959;SDS011;1994;48.640;8.894;2023-04-25T13:22:40;5.90;;;4.43;;
3959;SDS011;1994;48.640;8.894;2023-04-25T13:25:08;12.70;;;6.43;;
3959;SDS011;1994;48.640;8.894;2023-04-25T13:27:34;2.83;;;2.33;;
3959;SDS011;1994;48.640;8.894;2023-04-25T13:30:02;2.77;;;2.20;;
3959;SDS011;1994;48.640;8.894;2023-04-25T13:32:35;2.20;;;2.10;;
3959;SDS011;1994;48.640;8.894;2023-04-25T13:35:03;2.00;;;1.90;;
3959;SDS011;1994;48.640;8.894;2023-04-25T13:37:30;2.37;;;2.17;;
3959;SDS011;1994;48.640;8.894;2023-04-25T13:39:58;2.47;;;2.37;;
3959;SDS011;1994;48.640;8.894;2023-04-25T13:42:26;3.23;;;2.90;;
3959;SDS011;1994;48.640;8.894;2023-04-25T13:44:51;1.70;;;1.60;;
3959;SDS011;1994;48.640;8.894;2023-04-25T13:47:17;2.33;;;2.13;;
3959;SDS011;1994;48.640;8.894;2023-04-25T13:49:43;2.70;;;2.50;;
3959;SDS011;1994;48.640;8.894;2023-04-25T13:52:08;2.83;;;2.63;;
3959;SDS011;1994;48.640;8.894;2023-04-25T13:54:34;4.73;;;2.17;;
3959;SDS011;1994;48.640;8.894;2023-04-25T13:57:00;5.37;;;2.37;;
3959;SDS011;1994;48.640;8.894;2023-04-25T13:59:26;3.03;;;2.83;;
3959;SDS011;1994;48.640;8.894;2023-04-25T14:01:52;3.00;;;2.80;;
3959;SDS011;1994;48.640;8.894;2023-04-25T14:04:18;2.80;;;2.60;;
3959;SDS011;1994;48.640;8.894;2023-04-25T14:06:44;2.93;;;2.73;;
3959;SDS011;1994;48.640;8.894;2023-04-25T14:09:10;5.20;;;3.63;;
3959;SDS011;1994;48.640;8.894;2023-04-25T14:11:37;3.40;;;2.90;;
3959;SDS011;1994;48.640;8.894;2023-04-25T14:14:03;3.30;;;3.00;;
3959;SDS011;1994;48.640;8.894;2023-04-25T14:16:29;2.70;;;2.50;;
3959;SDS011;1994;48.640;8.894;2023-04-25T14:18:56;4.10;;;3.17;;
3959;SDS011;1994;48.640;8.894;2023-04-25T14:21:23;2.60;;;2.40;;
3959;SDS011;1994;48.640;8.894;2023-04-25T14:23:49;2.03;;;1.93;;
3959;SDS011;1994;48.640;8.894;2023-04-25T14:26:15;2.00;;;1.90;;
3959;SDS011;1994;48.640;8.894;2023-04-25T14:28:41;2.13;;;1.90;;
3959;SDS011;1994;48.640;8.894;2023-04-25T14:31:07;2.27;;;2.17;;
3959;SDS011;1994;48.640;8.894;2023-04-25T14:33:32;1.80;;;1.70;;
3959;SDS011;1994;48.640;8.894;2023-04-25T14:35:59;2.10;;;2.00;;
3959;SDS011;1994;48.640;8.894;2023-04-25T14:38:24;2.83;;;2.63;;
3959;SDS011;1994;48.640;8.894;2023-04-25T14:40:51;1.97;;;1.87;;
3959;SDS011;1994;48.640;8.894;2023-04-25T14:43:17;2.13;;;2.03;;
3959;SDS011;1994;48.640;8.894;2023-04-25T14:45:42;2.30;;;2.13;;
3959;SDS011;1994;48.640;8.894;2023-04-25T14:48:08;2.30;;;2.10;;
3959;SDS011;1994;48.640;8.894;2023-04-25T14:50:34;2.00;;;1.90;;
3959;SDS011;1994;48.640;8.894;2023-04-25T14:53:00;1.97;;;1.87;;
3959;SDS011;1994;48.640;8.894;2023-04-25T14:55:26;2.23;;;2.13;;
3959;SDS011;1994;48.640;8.894;2023-04-25T14:57:53;1.70;;;1.60;;
3959;SDS011;1994;48.640;8.894;2023-04-25T15:00:20;1.47;;;1.30;;
3959;SDS011;1994;48.640;8.894;2023-04-25T15:02:46;1.40;;;1.30;;
3959;SDS011;1994;48.640;8.894;2023-04-25T15:05:13;2.07;;;1.30;;
3959;SDS011;1994;48.640;8.894;2023-04-25T15:07:40;1.93;;;1.40;;
3959;SDS011;1994;48.640;8.894;2023-04-25T15:10:09;1.20;;;1.20;;
3959;SDS011;1994;48.640;8.894;2023-04-25T15:12:40;1.40;;;1.30;;
3959;SDS011;1994;48.640;8.894;2023-04-25T15:15:10;1.10;;;1.10;;
3959;SDS011;1994;48.640;8.894;2023-04-25T15:17:40;1.93;;;1.80;;
3959;SDS011;1994;48.640;8.894;2023-04-25T15:20:07;1.30;;;1.20;;
3959;SDS011;1994;48.640;8.894;2023-04-25T15:22:38;1.67;;;1.57;;
3959;SDS011;1994;48.640;8.894;2023-04-25T15:25:07;1.97;;;1.70;;
3959;SDS011;1994;48.640;8.894;2023-04-25T15:27:34;1.60;;;1.50;;
3959;SDS011;1994;48.640;8.894;2023-04-25T15:30:07;1.50;;;1.37;;
3959;SDS011;1994;48.640;8.894;2023-04-25T15:32:35;2.13;;;1.33;;